createdAt,value
2019-02-14T00:02:16.787Z,0.98
2019-02-14T00:04:47.408Z,0.99
2019-02-14T00:07:17.708Z,0.95
2019-02-14T00:09:47.940Z,0.86
2019-02-14T00:12:18.167Z,0.91
2019-02-14T00:14:48.818Z,0.91
2019-02-14T00:17:20.484Z,0.84
2019-02-14T00:19:51.951Z,0.66
2019-02-14T00:22:22.553Z,0.45
2019-02-14T00:24:53.734Z,0.33
2019-02-14T00:27:24.441Z,0.23
2019-02-14T00:29:55.478Z,0.16
2019-02-14T00:32:25.691Z,0.08
2019-02-14T00:34:56.434Z,0.02
2019-02-14T00:37:28.103Z,-0.08
2019-02-14T00:39:58.996Z,-0.12
2019-02-14T00:42:29.972Z,-0.21
2019-02-14T00:45:00.575Z,-0.28
2019-02-14T00:47:31.441Z,-0.34
2019-02-14T00:50:02.488Z,-0.40
2019-02-14T00:52:33.694Z,-0.44
2019-02-14T00:55:03.984Z,-0.50
2019-02-14T00:57:34.541Z,-0.56
2019-02-14T01:00:06.047Z,-0.57
2019-02-14T01:02:36.430Z,-0.61
2019-02-14T01:05:06.723Z,-0.65
2019-02-14T01:07:37.041Z,-0.60
2019-02-14T01:10:07.290Z,-0.67
2019-02-14T01:12:37.826Z,-0.70
2019-02-14T01:15:09.179Z,-0.74
2019-02-14T01:17:40.051Z,-0.80
2019-02-14T01:20:10.302Z,-0.87
2019-02-14T01:22:41.963Z,-0.92
2019-02-14T01:25:12.528Z,-0.94
2019-02-14T01:27:42.826Z,-0.96
2019-02-14T01:30:13.518Z,-0.99
2019-02-14T01:32:44.163Z,-1.00
2019-02-14T01:35:14.414Z,-0.98
2019-02-14T01:37:46.129Z,-1.01
2019-02-14T01:40:17.069Z,-1.04
2019-02-14T01:42:48.008Z,-1.04
2019-02-14T01:45:18.269Z,-1.04
2019-02-14T01:47:48.548Z,-1.03
2019-02-14T01:50:18.810Z,-1.08
2019-02-14T01:52:49.092Z,-1.06
2019-02-14T01:55:19.714Z,-1.10
2019-02-14T01:57:51.722Z,-1.12
2019-02-14T02:00:22.536Z,-1.15
2019-02-14T02:02:53.481Z,-1.12
2019-02-14T02:05:25.030Z,-1.12
2019-02-14T02:07:55.653Z,-1.12
2019-02-14T02:10:30.801Z,-1.16
2019-02-14T02:13:01.115Z,-1.19
2019-02-14T02:15:31.407Z,-1.22
2019-02-14T02:18:02.372Z,-0.95
2019-02-14T02:20:33.558Z,-0.92
2019-02-14T02:23:04.266Z,-0.92
2019-02-14T02:25:34.515Z,-0.90
2019-02-14T02:28:05.427Z,-0.88
2019-02-14T02:30:35.754Z,-0.89
2019-02-14T02:33:06.063Z,-1.01
2019-02-14T02:35:36.245Z,-0.89
2019-02-14T02:38:06.874Z,-1.01
2019-02-14T02:40:37.358Z,-1.11
2019-02-14T02:43:07.664Z,-1.19
2019-02-14T02:45:38.317Z,-1.20
2019-02-14T02:48:08.946Z,-1.20
2019-02-14T02:50:39.808Z,-1.23
2019-02-14T02:53:10.415Z,-1.17
2019-02-14T02:55:41.045Z,-1.22
2019-02-14T02:58:12.702Z,-1.13
2019-02-14T03:00:43.194Z,-1.09
2019-02-14T03:03:13.412Z,-1.08
2019-02-14T03:05:43.734Z,-1.22
2019-02-14T03:08:13.935Z,-1.30
2019-02-14T03:10:46.172Z,-1.22
2019-02-14T03:13:16.702Z,-1.32
2019-02-14T03:15:46.997Z,-1.29
2019-02-14T03:19:37.019Z,-1.44
2019-02-14T03:22:07.956Z,-1.39
2019-02-14T03:24:38.901Z,-1.29
2019-02-14T03:27:09.158Z,-1.36
2019-02-14T03:29:39.751Z,-1.43
2019-02-14T03:32:10.003Z,-1.47
2019-02-14T03:34:40.277Z,-1.49
2019-02-14T03:37:10.550Z,-1.52
2019-02-14T03:39:41.221Z,-1.59
2019-02-14T03:42:11.891Z,-1.66
2019-02-14T03:44:42.522Z,-1.65
2019-02-14T03:47:12.775Z,-1.67
2019-02-14T03:49:43.801Z,-1.71
2019-02-14T03:52:14.041Z,-1.76
2019-02-14T03:54:44.738Z,-1.84
2019-02-14T03:57:15.346Z,-1.85
2019-02-14T03:59:46.422Z,-1.88
2019-02-14T04:02:16.671Z,-1.89
2019-02-14T04:04:47.387Z,-1.86
2019-02-14T04:07:17.647Z,-1.79
2019-02-14T04:09:47.918Z,-1.74
2019-02-14T04:12:18.545Z,-1.70
2019-02-14T04:14:49.183Z,-1.63
2019-02-14T04:17:19.712Z,-1.65
2019-02-14T04:19:50.329Z,-1.64
2019-02-14T04:22:20.842Z,-1.73
2019-02-14T04:24:51.470Z,-1.81
2019-02-14T04:27:21.685Z,-1.80
2019-02-14T04:29:52.300Z,-1.85
2019-02-14T04:32:23.265Z,-1.89
2019-02-14T04:34:53.821Z,-1.92
2019-02-14T04:37:24.110Z,-1.94
2019-02-14T04:39:55.297Z,-1.94
2019-02-14T04:42:25.578Z,-1.87
2019-02-14T04:44:55.823Z,-1.84
2019-02-14T04:47:26.472Z,-1.86
2019-02-14T04:49:57.751Z,-1.91
2019-02-14T04:52:28.007Z,-1.92
2019-02-14T04:54:58.489Z,-1.83
2019-02-14T04:57:31.070Z,-1.87
2019-02-14T05:00:01.349Z,-1.92
2019-02-14T05:02:32.009Z,-1.98
2019-02-14T05:05:02.298Z,-1.98
2019-02-14T05:07:32.920Z,-1.91
2019-02-14T05:10:03.467Z,-1.76
2019-02-14T05:12:34.083Z,-1.77
2019-02-14T05:15:04.957Z,-1.80
2019-02-14T05:17:36.004Z,-1.74
2019-02-14T05:20:07.544Z,-1.69
2019-02-14T05:22:38.107Z,-1.77
2019-02-14T05:25:08.880Z,-1.73
2019-02-14T05:27:39.370Z,-1.77
2019-02-14T05:30:11.441Z,-1.74
2019-02-14T05:32:41.736Z,-1.75
2019-02-14T05:35:12.379Z,-1.80
2019-02-14T05:37:42.994Z,-1.79
2019-02-14T05:40:13.279Z,-1.77
2019-02-14T05:42:44.370Z,-1.76
2019-02-14T05:45:15.003Z,-1.69
2019-02-14T05:47:45.577Z,-1.66
2019-02-14T05:50:16.227Z,-1.68
2019-02-14T05:52:48.227Z,-1.64
2019-02-14T05:55:18.825Z,-1.67
2019-02-14T05:57:49.491Z,-1.73
2019-02-14T06:00:20.671Z,-1.76
2019-02-14T06:02:50.987Z,-1.73
2019-02-14T06:05:21.302Z,-1.67
2019-02-14T06:07:51.974Z,-1.76
2019-02-14T06:10:22.625Z,-1.77
2019-02-14T06:12:52.871Z,-1.79
2019-02-14T06:15:23.508Z,-1.79
2019-02-14T06:17:54.192Z,-1.78
2019-02-14T06:20:24.742Z,-1.80
2019-02-14T06:22:55.572Z,-1.72
2019-02-14T06:25:26.117Z,-1.59
2019-02-14T06:27:56.373Z,-1.44
2019-02-14T06:30:27.296Z,-1.22
2019-02-14T06:32:57.631Z,-1.26
2019-02-14T06:35:27.903Z,-1.20
2019-02-14T06:37:58.874Z,-1.03
2019-02-14T06:40:29.520Z,-0.78
2019-02-14T06:43:00.152Z,-0.42
2019-02-14T06:45:30.764Z,-0.19
2019-02-14T06:48:01.325Z,-0.31
2019-02-14T06:50:34.790Z,-0.33
2019-02-14T06:53:04.315Z,-0.26
2019-02-14T06:55:34.851Z,-0.22
2019-02-14T06:58:05.178Z,0.49
2019-02-14T07:00:35.800Z,0.52
2019-02-14T07:03:06.966Z,0.48
2019-02-14T07:05:37.251Z,0.55
2019-02-14T07:08:08.450Z,0.58
2019-02-14T07:10:39.351Z,0.73
2019-02-14T07:13:09.986Z,0.98
2019-02-14T07:15:40.636Z,0.96
2019-02-14T07:18:10.985Z,1.08
2019-02-14T07:20:41.870Z,1.14
2019-02-14T07:23:12.511Z,1.42
2019-02-14T07:25:43.151Z,1.42
2019-02-14T07:28:13.779Z,1.23
2019-02-14T07:30:44.452Z,1.13
2019-02-14T07:33:15.036Z,1.12
2019-02-14T07:35:45.774Z,1.20
2019-02-14T07:38:16.404Z,1.28
2019-02-14T07:40:46.728Z,1.23
2019-02-14T07:43:17.365Z,1.33
2019-02-14T07:45:47.994Z,1.41
2019-02-14T07:48:19.237Z,1.46
2019-02-14T07:50:49.876Z,1.59
2019-02-14T07:53:20.651Z,1.58
2019-02-14T07:55:50.914Z,1.64
2019-02-14T07:58:21.569Z,1.71
2019-02-14T08:00:52.854Z,1.87
2019-02-14T08:03:23.741Z,1.94
2019-02-14T08:05:54.043Z,2.03
2019-02-14T08:08:24.355Z,2.20
2019-02-14T08:10:55.588Z,2.36
2019-02-14T08:13:26.619Z,2.57
2019-02-14T08:15:57.321Z,2.72
2019-02-14T08:18:27.949Z,2.89
2019-02-14T08:20:58.585Z,3.01
2019-02-14T08:23:29.420Z,3.17
2019-02-14T08:26:00.997Z,3.22
2019-02-14T08:28:31.607Z,3.27
2019-02-14T08:31:02.237Z,3.30
2019-02-14T08:33:32.938Z,3.35
2019-02-14T08:36:03.470Z,3.43
2019-02-14T08:38:34.268Z,3.56
2019-02-14T08:41:04.977Z,3.64
2019-02-14T08:43:35.527Z,3.71
2019-02-14T08:46:06.147Z,3.78
2019-02-14T08:48:36.766Z,3.87
2019-02-14T08:51:07.324Z,4.00
2019-02-14T08:53:37.920Z,4.12
2019-02-14T08:56:08.863Z,4.24
2019-02-14T08:58:39.259Z,4.39
2019-02-14T09:01:10.465Z,4.53
2019-02-14T09:03:41.373Z,4.71
2019-02-14T09:06:11.968Z,4.82
2019-02-14T09:08:42.296Z,4.90
2019-02-14T09:11:12.934Z,5.00
2019-02-14T09:13:44.107Z,5.11
2019-02-14T09:16:14.704Z,5.24
2019-02-14T09:18:45.898Z,5.32
2019-02-14T09:21:16.462Z,5.37
2019-02-14T09:23:47.245Z,5.44
2019-02-14T09:26:17.642Z,5.51
2019-02-14T09:28:47.968Z,5.65
2019-02-14T09:31:19.504Z,5.87
2019-02-14T09:33:50.174Z,5.87
2019-02-14T09:36:20.501Z,6.00
2019-02-14T09:38:51.177Z,6.09
2019-02-14T09:41:21.442Z,6.24
2019-02-14T09:43:52.889Z,6.33
2019-02-14T09:46:23.478Z,6.41
2019-02-14T09:48:54.387Z,6.41
2019-02-14T09:51:25.012Z,6.54
2019-02-14T09:53:55.680Z,6.65
2019-02-14T09:56:25.965Z,6.75
2019-02-14T09:58:56.628Z,6.81
2019-02-14T10:01:27.555Z,7.04
2019-02-14T10:03:58.201Z,7.26
2019-02-14T10:06:36.444Z,7.41
2019-02-14T10:09:00.961Z,7.60
2019-02-14T10:11:32.545Z,7.77
2019-02-14T10:14:03.715Z,8.06
2019-02-14T10:16:34.717Z,9.01
2019-02-14T10:19:05.352Z,10.33
2019-02-14T10:21:36.240Z,11.43
2019-02-14T10:24:06.816Z,12.42
2019-02-14T10:26:37.445Z,12.84
2019-02-14T10:29:08.069Z,13.55
2019-02-14T10:31:38.960Z,14.54
2019-02-14T10:34:09.541Z,15.46
2019-02-14T10:36:40.081Z,15.89
2019-02-14T10:39:11.327Z,16.63
2019-02-14T10:41:41.617Z,16.11
2019-02-14T10:44:12.589Z,16.81
2019-02-14T10:46:43.226Z,17.19
2019-02-14T10:49:13.856Z,17.84
2019-02-14T10:51:44.630Z,18.17
2019-02-14T10:54:15.161Z,18.16
2019-02-14T10:56:46.161Z,17.80
2019-02-14T10:59:16.443Z,18.09
2019-02-14T11:01:47.426Z,17.40
2019-02-14T11:04:18.054Z,16.16
2019-02-14T11:06:48.553Z,15.80
2019-02-14T11:09:19.440Z,15.90
2019-02-14T11:11:50.023Z,15.96
2019-02-14T11:14:29.006Z,15.39
2019-02-14T11:16:53.260Z,15.24
2019-02-14T11:19:23.535Z,15.18
2019-02-14T11:21:54.397Z,15.46
2019-02-14T11:24:25.541Z,16.81
2019-02-14T11:26:56.404Z,17.53
2019-02-14T11:29:27.756Z,19.12
2019-02-14T11:31:58.273Z,20.30
2019-02-14T11:34:28.491Z,21.59
2019-02-14T11:36:59.852Z,21.79
2019-02-14T11:39:30.794Z,22.40
2019-02-14T11:42:02.245Z,22.82
2019-02-14T11:44:39.551Z,23.71
2019-02-14T11:47:05.147Z,23.26
2019-02-14T11:49:35.781Z,22.09
2019-02-14T11:52:06.407Z,23.35
2019-02-14T11:54:37.297Z,23.61
2019-02-14T11:57:07.545Z,24.25
2019-02-14T11:59:38.220Z,24.44
2019-02-14T12:02:08.735Z,24.73
2019-02-14T12:04:39.315Z,24.66
2019-02-14T12:07:10.169Z,25.41
2019-02-14T12:09:40.377Z,25.96
2019-02-14T12:12:10.948Z,25.66
2019-02-14T12:14:41.603Z,25.38
2019-02-14T12:17:12.216Z,25.40
2019-02-14T12:19:42.492Z,26.36
2019-02-14T12:22:13.075Z,26.98
2019-02-14T12:24:43.306Z,27.47
2019-02-14T12:27:13.822Z,27.50
2019-02-14T12:29:44.594Z,26.39
2019-02-14T12:32:15.166Z,26.13
2019-02-14T12:34:45.869Z,26.94
2019-02-14T12:37:16.429Z,27.45
2019-02-14T12:39:46.973Z,28.09
2019-02-14T12:42:17.246Z,28.43
2019-02-14T12:44:48.060Z,29.22
2019-02-14T12:47:18.287Z,29.98
2019-02-14T12:49:48.569Z,29.66
2019-02-14T12:52:18.753Z,29.63
2019-02-14T12:54:49.339Z,30.07
2019-02-14T12:57:19.583Z,30.24
2019-02-14T12:59:50.851Z,30.28
2019-02-14T13:02:21.057Z,31.31
2019-02-14T13:07:12.157Z,30.61
2019-02-14T13:09:42.464Z,29.95
2019-02-14T13:12:13.933Z,29.92
2019-02-14T13:14:44.349Z,30.19
2019-02-14T13:17:14.608Z,30.04
2019-02-14T13:19:44.901Z,30.34
2019-02-14T13:22:15.633Z,29.70
2019-02-14T13:24:46.189Z,30.06
2019-02-14T13:27:16.792Z,30.59
2019-02-14T13:29:47.420Z,31.13
2019-02-14T13:32:17.964Z,32.06
2019-02-14T13:34:48.278Z,31.41
2019-02-14T13:37:18.617Z,31.75
2019-02-14T13:39:49.542Z,31.63
2019-02-14T13:42:20.925Z,32.26
2019-02-14T13:44:51.527Z,32.47
2019-02-14T13:47:22.069Z,32.45
2019-02-14T13:49:52.384Z,31.14
2019-02-14T13:52:22.641Z,30.93
2019-02-14T13:54:52.925Z,31.02
2019-02-14T13:57:23.270Z,31.53
2019-02-14T13:59:53.787Z,33.32
2019-02-14T14:02:24.125Z,33.38
2019-02-14T14:04:54.404Z,32.87
2019-02-14T14:07:24.981Z,33.25
2019-02-14T14:09:55.222Z,33.97
2019-02-14T14:12:25.724Z,34.44
2019-02-14T14:14:56.467Z,34.25
2019-02-14T14:17:27.086Z,33.14
2019-02-14T14:19:57.813Z,32.94
2019-02-14T14:22:28.355Z,33.91
2019-02-14T14:24:58.878Z,34.17
2019-02-14T14:27:29.284Z,34.35
2019-02-14T14:30:00.929Z,34.56
2019-02-14T14:32:31.492Z,33.31
2019-02-14T14:35:02.215Z,33.56
2019-02-14T14:37:33.373Z,33.67
2019-02-14T14:40:04.636Z,32.35
2019-02-14T14:42:54.921Z,32.68
2019-02-14T14:45:46.932Z,32.38
2019-02-14T14:48:19.510Z,33.37
2019-02-14T14:50:50.053Z,29.97
2019-02-14T14:53:21.296Z,27.84
2019-02-14T14:55:51.931Z,27.10
2019-02-14T14:58:23.509Z,24.61
2019-02-14T15:00:54.143Z,24.43
2019-02-14T15:03:24.403Z,26.20
2019-02-14T15:05:54.989Z,29.07
2019-02-14T15:08:25.586Z,30.58
2019-02-14T15:10:55.878Z,30.98
2019-02-14T15:13:26.474Z,31.62
2019-02-14T15:15:57.195Z,32.29
2019-02-14T15:18:27.785Z,31.90
2019-02-14T15:20:59.346Z,31.45
2019-02-14T15:23:30.584Z,30.27
2019-02-14T15:26:01.150Z,30.21
2019-02-14T15:28:31.344Z,30.20
2019-02-14T15:31:01.665Z,28.48
2019-02-14T15:33:32.177Z,23.72
2019-02-14T15:36:02.828Z,20.62
2019-02-14T15:38:34.551Z,18.34
2019-02-14T15:41:05.293Z,17.20
2019-02-14T15:43:36.296Z,16.19
2019-02-14T15:46:06.548Z,15.52
2019-02-14T15:48:36.763Z,15.04
2019-02-14T15:51:07.371Z,14.56
2019-02-14T15:53:38.000Z,14.30
2019-02-14T15:56:08.255Z,14.04
2019-02-14T15:58:38.837Z,13.75
2019-02-14T16:01:09.123Z,13.45
2019-02-14T16:03:42.686Z,13.23
2019-02-14T16:06:12.990Z,13.02
2019-02-14T16:08:44.693Z,12.76
2019-02-14T16:11:16.552Z,12.55
2019-02-14T16:13:47.139Z,12.46
2019-02-14T16:16:17.412Z,12.34
2019-02-14T16:18:49.204Z,12.17
2019-02-14T16:21:20.237Z,11.97
2019-02-14T16:23:51.495Z,11.77
2019-02-14T16:26:22.695Z,11.63
2019-02-14T16:28:53.068Z,11.61
2019-02-14T16:31:24.053Z,11.52
2019-02-14T16:33:54.866Z,11.52
2019-02-14T16:36:25.504Z,11.26
2019-02-14T16:38:58.733Z,11.05
2019-02-14T16:41:29.223Z,10.78
2019-02-14T16:43:59.537Z,10.60
2019-02-14T16:46:30.148Z,10.33
2019-02-14T16:49:00.718Z,10.06
2019-02-14T16:51:31.240Z,9.77
2019-02-14T16:54:01.884Z,9.50
2019-02-14T16:56:33.426Z,9.26
2019-02-14T16:59:04.056Z,9.02
2019-02-14T17:01:34.491Z,8.87
2019-02-14T17:04:06.148Z,8.73
2019-02-14T17:06:36.769Z,8.59
2019-02-14T17:09:07.862Z,8.47
2019-02-14T17:11:38.186Z,8.37
2019-02-14T17:14:08.976Z,8.25
2019-02-14T17:16:39.920Z,8.17
2019-02-14T17:19:10.538Z,8.08
2019-02-14T17:21:41.093Z,7.97
2019-02-14T17:24:11.467Z,7.85
2019-02-14T17:26:41.931Z,7.78
2019-02-14T17:29:12.413Z,7.74
2019-02-14T17:31:42.965Z,7.73
2019-02-14T17:34:13.740Z,7.66
2019-02-14T17:36:44.632Z,7.70
2019-02-14T17:39:14.961Z,7.70
2019-02-14T17:41:46.458Z,8.18
2019-02-14T17:44:16.772Z,8.01
2019-02-14T17:46:47.036Z,7.78
2019-02-14T17:49:17.620Z,7.62
2019-02-14T17:51:48.251Z,7.44
2019-02-14T17:54:19.292Z,7.22
2019-02-14T17:56:49.573Z,7.34
2019-02-14T17:59:20.247Z,7.19
2019-02-14T18:01:50.892Z,7.14
2019-02-14T18:04:21.769Z,7.07
2019-02-14T18:06:52.543Z,7.09
2019-02-14T18:09:22.794Z,7.03
2019-02-14T18:11:53.172Z,7.03
2019-02-14T18:14:24.253Z,7.03
2019-02-14T18:16:54.927Z,6.98
2019-02-14T18:19:25.534Z,6.92
2019-02-14T18:21:55.885Z,6.84
2019-02-14T18:24:26.957Z,6.78
2019-02-14T18:26:57.259Z,6.73
2019-02-14T18:29:27.986Z,6.75
2019-02-14T18:31:58.188Z,6.69
2019-02-14T18:34:28.593Z,6.70
2019-02-14T18:36:59.329Z,6.62
2019-02-14T18:39:29.959Z,6.76
2019-02-14T18:42:00.307Z,6.61
2019-02-14T18:44:31.384Z,6.45
2019-02-14T18:47:01.952Z,6.36
2019-02-14T18:49:32.615Z,6.31
2019-02-14T18:52:03.635Z,6.26
2019-02-14T18:54:34.558Z,6.08
2019-02-14T18:57:05.809Z,6.03
2019-02-14T18:59:36.053Z,5.86
2019-02-14T19:02:06.662Z,5.73
2019-02-14T19:04:42.004Z,5.77
2019-02-14T19:07:18.088Z,5.85
2019-02-14T19:09:49.307Z,5.70
2019-02-14T19:12:19.585Z,5.86
2019-02-14T19:14:49.848Z,5.73
2019-02-14T19:17:20.812Z,5.60
2019-02-14T19:19:51.729Z,5.49
2019-02-14T19:22:21.977Z,5.52
2019-02-14T19:24:52.250Z,5.39
2019-02-14T19:27:22.617Z,5.33
2019-02-14T19:29:53.358Z,5.34
2019-02-14T19:32:24.020Z,5.26
2019-02-14T19:34:54.812Z,5.19
2019-02-14T19:37:26.747Z,5.30
2019-02-14T19:39:58.305Z,5.24
2019-02-14T19:42:28.885Z,5.09
2019-02-14T19:44:59.114Z,5.04
2019-02-14T19:47:29.408Z,5.02
2019-02-14T19:49:59.694Z,5.02
2019-02-14T19:52:30.262Z,5.05
2019-02-14T19:55:01.559Z,4.89
2019-02-14T19:57:32.278Z,4.92
2019-02-14T20:00:03.203Z,4.84
2019-02-14T20:02:33.926Z,4.77
2019-02-14T20:05:04.564Z,4.75
2019-02-14T20:07:36.288Z,4.74
2019-02-14T20:10:09.127Z,4.66
2019-02-14T20:12:40.027Z,4.53
2019-02-14T20:15:12.964Z,4.39
2019-02-14T20:17:43.987Z,4.26
2019-02-14T20:20:14.585Z,4.15
2019-02-14T20:22:45.233Z,4.05
2019-02-14T20:25:17.076Z,4.06
2019-02-14T20:27:49.968Z,4.33
2019-02-14T20:30:19.742Z,4.34
2019-02-14T20:32:50.364Z,4.51
2019-02-14T20:35:20.572Z,4.69
2019-02-14T20:37:52.026Z,4.69
2019-02-14T20:40:22.244Z,4.77
2019-02-14T20:42:52.539Z,4.84
2019-02-14T20:45:23.169Z,4.75
2019-02-14T20:47:57.134Z,4.71
2019-02-14T20:50:26.818Z,4.74
2019-02-14T20:52:57.496Z,4.76
2019-02-14T20:55:28.149Z,4.89
2019-02-14T20:57:59.090Z,5.19
2019-02-14T21:00:30.642Z,5.46
2019-02-14T21:03:01.281Z,5.64
2019-02-14T21:05:31.903Z,5.80
2019-02-14T21:08:03.646Z,6.01
2019-02-14T21:10:35.506Z,5.83
2019-02-14T21:13:06.188Z,6.05
2019-02-14T21:15:36.464Z,6.01
2019-02-14T21:18:07.342Z,5.73
2019-02-14T21:20:37.605Z,5.98
2019-02-14T21:23:07.908Z,5.85
2019-02-14T21:25:38.578Z,5.74
2019-02-14T21:28:08.860Z,5.60
2019-02-14T21:30:39.225Z,5.34
2019-02-14T21:33:10.168Z,5.20
2019-02-14T21:35:40.948Z,5.31
2019-02-14T21:38:11.942Z,5.18
2019-02-14T21:40:42.905Z,4.88
2019-02-14T21:43:13.586Z,4.61
2019-02-14T21:45:44.698Z,4.36
2019-02-14T21:48:15.008Z,4.31
2019-02-14T21:50:45.711Z,4.13
2019-02-14T21:53:16.216Z,3.90
2019-02-14T21:55:46.782Z,3.65
2019-02-14T21:58:17.118Z,3.46
2019-02-14T22:00:47.863Z,3.33
2019-02-14T22:03:18.215Z,3.21
2019-02-14T22:05:48.448Z,3.06
2019-02-14T22:08:19.060Z,2.89
2019-02-14T22:10:49.353Z,2.74
2019-02-14T22:13:20.158Z,2.60
2019-02-14T22:15:50.705Z,2.48
2019-02-14T22:18:21.373Z,2.36
2019-02-14T22:20:52.004Z,2.30
2019-02-14T22:23:22.562Z,2.18
2019-02-14T22:25:53.529Z,2.17
2019-02-14T22:28:24.190Z,2.22
2019-02-14T22:30:55.235Z,2.18
2019-02-14T22:33:26.174Z,2.22
2019-02-14T22:35:56.441Z,2.23
2019-02-14T22:38:26.709Z,2.17
2019-02-14T22:40:57.469Z,2.17
2019-02-14T22:43:28.025Z,2.11
2019-02-14T22:45:58.615Z,2.14
2019-02-14T22:48:29.222Z,2.06
2019-02-14T22:50:59.781Z,2.12
2019-02-14T22:53:30.419Z,2.14
2019-02-14T22:56:00.733Z,2.13
2019-02-14T22:58:31.367Z,2.01
2019-02-14T23:01:02.395Z,1.87
2019-02-14T23:03:34.472Z,1.75
2019-02-14T23:06:05.106Z,1.66
2019-02-14T23:08:36.256Z,1.49
2019-02-14T23:11:06.644Z,1.35
2019-02-14T23:13:37.210Z,1.25
2019-02-14T23:16:07.730Z,1.17
2019-02-14T23:18:38.777Z,1.09
2019-02-14T23:21:09.141Z,1.06
2019-02-14T23:24:05.234Z,1.02
2019-02-14T23:26:35.814Z,1.06
2019-02-14T23:29:06.068Z,1.01
2019-02-14T23:31:36.718Z,0.93
2019-02-14T23:34:07.554Z,0.89
2019-02-14T23:36:38.184Z,0.90
2019-02-14T23:39:08.555Z,0.86
2019-02-14T23:41:38.901Z,0.83
2019-02-14T23:44:09.202Z,0.90
2019-02-14T23:46:39.802Z,0.81
2019-02-14T23:49:10.470Z,0.74
2019-02-14T23:51:41.056Z,0.71
2019-02-14T23:54:12.505Z,0.67
2019-02-14T23:56:43.445Z,0.63
2019-02-14T23:59:14.487Z,0.54
